Time;durP1;ratioP1;P1;durP2;ratioP2;P2;SDS_P1;SDS_P2;PMS_P1;PMS_P2;Temp;Humidity;BMP_temperature;BMP_pressure;BME280_temperature;BME280_humidity;BME280_pressure;Samples;Min_cycle;Max_cycle;Signal;HPM_P1;HPM_P2
2023/08/22 00:00:29;;;;;;;5.25;1.80;;;19.00;99.90;;;18.30;100.00;101637.81;4134959;28;20082;-72
2023/08/22 00:02:30;;;;;;;4.53;1.63;;;18.90;99.90;;;18.36;100.00;101658.44;4152370;28;20033;-72
2023/08/22 00:04:30;;;;;;;5.10;1.85;;;18.90;99.90;;;18.36;100.00;101658.44;4151157;28;20493;-72
2023/08/22 00:06:31;;;;;;;6.80;2.92;;;18.80;99.90;;;18.29;100.00;101654.84;4167572;28;20036;-72
2023/08/22 00:08:32;;;;;;;5.88;1.83;;;18.80;99.90;;;18.29;100.00;101656.66;4151025;28;20030;-72
2023/08/22 00:10:34;;;;;;;5.47;2.22;;;18.80;99.90;;;18.25;100.00;101649.03;4152262;28;20061;-72
2023/08/22 00:12:35;;;;;;;5.80;1.90;;;18.70;99.90;;;18.20;100.00;101650.59;4152413;28;20026;-72
2023/08/22 00:14:36;;;;;;;2.70;1.65;;;18.70;99.90;;;18.15;100.00;101647.66;4152116;28;20041;-72
2023/08/22 00:16:36;;;;;;;4.93;1.50;;;18.70;99.90;;;18.12;100.00;101645.34;4151081;28;20049;-72
2023/08/22 00:18:37;;;;;;;7.35;2.33;;;18.60;99.90;;;18.03;100.00;101628.59;4152204;28;20026;-73
2023/08/22 00:20:38;;;;;;;6.18;2.03;;;18.60;99.90;;;18.02;100.00;101634.09;4150936;28;20087;-73
2023/08/22 00:22:40;;;;;;;3.85;1.70;;;18.50;99.90;;;18.00;100.00;101630.78;4167336;28;20039;-72
2023/08/22 00:24:41;;;;;;;5.15;1.83;;;18.50;99.90;;;17.95;100.00;101633.19;4152262;28;20026;-72
2023/08/22 00:26:42;;;;;;;7.07;2.53;;;18.50;99.90;;;17.88;100.00;101617.06;4152241;28;20052;-72
2023/08/22 00:28:43;;;;;;;3.03;1.35;;;18.40;99.90;;;17.89;100.00;101623.22;4150620;28;20026;-72
2023/08/22 00:30:43;;;;;;;6.35;2.22;;;18.40;99.90;;;17.74;100.00;101606.38;4150832;28;20073;-72
2023/08/22 00:32:44;;;;;;;5.95;2.00;;;18.40;99.90;;;17.79;100.00;101628.00;4152151;28;20498;-72
2023/08/22 00:34:45;;;;;;;5.63;1.67;;;18.30;99.90;;;17.75;100.00;101621.34;4152092;28;20021;-72
2023/08/22 00:36:46;;;;;;;4.90;2.17;;;18.30;99.90;;;17.75;100.00;101626.69;4150380;28;20049;-72
2023/08/22 00:38:47;;;;;;;4.43;2.17;;;18.20;99.90;;;17.72;100.00;101627.03;4152177;28;20486;-72
2023/08/22 00:40:48;;;;;;;3.83;1.80;;;18.20;99.90;;;17.67;100.00;101627.59;4152175;28;20056;-72
2023/08/22 00:42:50;;;;;;;5.22;2.03;;;18.20;99.90;;;17.57;100.00;101619.84;4152097;28;20026;-72
2023/08/22 00:44:53;;;;;;;4.88;2.10;;;18.10;99.90;;;17.59;100.00;101623.16;4151771;28;20022;-72
2023/08/22 00:46:54;;;;;;;5.63;2.00;;;18.10;99.90;;;17.57;100.00;101624.34;4151012;28;20454;-72
2023/08/22 00:48:56;;;;;;;6.80;1.77;;;18.00;99.90;;;17.54;100.00;101619.34;4152228;28;20033;-72
2023/08/22 00:50:58;;;;;;;6.53;2.03;;;18.00;99.90;;;17.50;100.00;101626.88;4152230;28;20033;-72
2023/08/22 00:53:00;;;;;;;3.83;1.75;;;18.00;99.90;;;17.40;100.00;101610.28;4151996;28;20018;-72
2023/08/22 00:55:01;;;;;;;4.78;2.38;;;18.00;99.90;;;17.31;100.00;101594.53;4150254;28;20045;-72
2023/08/22 00:57:03;;;;;;;7.45;1.90;;;17.90;99.90;;;17.26;100.00;101597.75;4143531;28;20513;-72
2023/08/22 00:59:04;;;;;;;8.15;2.35;;;17.90;99.90;;;17.40;100.00;101625.47;4152856;28;20065;-72
2023/08/22 01:01:05;;;;;;;8.20;1.85;;;17.90;99.90;;;17.34;100.00;101624.34;4154903;28;20034;-72
2023/08/22 01:03:06;;;;;;;7.25;2.25;;;17.90;99.90;;;17.31;100.00;101624.69;4155071;28;20049;-72
2023/08/22 01:05:08;;;;;;;4.47;1.60;;;17.80;99.90;;;17.29;100.00;101616.06;4137640;28;20038;-72
2023/08/22 01:07:08;;;;;;;6.90;2.40;;;17.80;99.90;;;17.25;100.00;101625.41;4137349;28;20038;-72
2023/08/22 01:09:27;;;;;;;4.30;1.70;;;17.80;99.90;;;17.22;100.00;101614.25;4154785;28;20020;-71
2023/08/22 01:11:40;;;;;;;4.07;1.80;;;17.70;99.90;;;17.19;100.00;101612.78;4154183;28;20488;-72
2023/08/22 01:13:46;;;;;;;6.80;2.17;;;17.70;99.90;;;17.14;100.00;101609.84;4153792;28;20033;-72
2023/08/22 01:15:49;;;;;;;6.03;1.75;;;17.70;99.90;;;17.12;100.00;101603.84;4153764;28;20453;-72
2023/08/22 01:17:54;;;;;;;4.53;2.03;;;17.60;99.90;;;17.10;100.00;101606.69;4155072;28;20057;-72
2023/08/22 01:19:55;;;;;;;4.32;2.10;;;17.60;99.90;;;17.04;100.00;101604.72;4153426;28;20041;-72
2023/08/22 01:21:56;;;;;;;5.55;2.10;;;17.60;99.90;;;17.05;100.00;101598.38;4153732;28;20493;-72
2023/08/22 01:23:57;;;;;;;5.65;1.92;;;17.50;99.90;;;17.04;100.00;101601.22;4154947;28;20045;-72
2023/08/22 01:25:58;;;;;;;6.40;2.25;;;17.50;99.90;;;17.00;100.00;101598.09;4154791;28;20018;-72
2023/08/22 01:28:33;;;;;;;12.98;2.40;;;17.50;99.90;;;16.98;100.00;101607.28;4154644;28;20034;-72
2023/08/22 01:30:57;;;;;;;4.23;1.87;;;17.50;99.90;;;16.96;100.00;101599.47;4157139;28;20021;-72
2023/08/22 01:33:06;;;;;;;13.75;2.63;;;17.40;99.90;;;16.93;100.00;101606.97;4137292;28;20109;-73
2023/08/22 01:35:12;;;;;;;4.50;1.80;;;17.50;99.90;;;16.91;100.00;101595.63;4138558;28;20037;-72
2023/08/22 01:37:14;;;;;;;6.57;2.25;;;17.40;99.90;;;16.86;100.00;101593.53;4153347;28;20042;-72
2023/08/22 01:39:18;;;;;;;6.25;1.90;;;17.40;99.90;;;16.87;100.00;101584.53;4145544;28;20057;-72
2023/08/22 01:41:20;;;;;;;6.07;2.28;;;17.40;99.90;;;16.86;100.00;101590.84;4136953;28;20030;-72
2023/08/22 01:43:21;;;;;;;5.32;2.60;;;17.40;99.90;;;16.84;100.00;101589.38;4152817;28;20087;-72
2023/08/22 01:45:22;;;;;;;5.18;2.30;;;17.30;99.90;;;16.79;100.00;101584.56;4154458;28;20029;-72
2023/08/22 01:47:23;;;;;;;4.30;1.90;;;17.30;99.90;;;16.68;100.00;101561.00;4154293;28;20033;-72
2023/08/22 01:49:24;;;;;;;3.38;1.63;;;17.30;99.90;;;16.77;100.00;101575.09;4136802;28;20031;-72
2023/08/22 01:51:25;;;;;;;5.15;2.08;;;17.30;99.90;;;16.73;100.00;101571.09;4152965;28;20481;-71
2023/08/22 01:53:25;;;;;;;5.45;2.40;;;17.20;99.90;;;16.71;100.00;101573.13;4153092;28;20018;-72
2023/08/22 01:55:26;;;;;;;3.58;1.85;;;17.20;99.90;;;16.68;100.00;101573.47;4154247;28;20029;-72
2023/08/22 01:57:27;;;;;;;8.50;3.28;;;17.20;99.90;;;16.65;100.00;101573.81;4152898;28;20034;-72
2023/08/22 01:59:28;;;;;;;2.75;1.98;;;17.10;99.90;;;16.63;100.00;101576.69;4152673;28;20026;-72
2023/08/22 02:01:29;;;;;;;4.63;2.55;;;17.10;99.90;;;16.60;100.00;101587.69;4153031;28;20026;-72
2023/08/22 02:03:30;;;;;;;4.53;2.35;;;17.10;99.90;;;16.57;100.00;101580.03;4153036;28;20025;-72
2023/08/22 02:05:30;;;;;;;5.30;2.67;;;17.10;99.90;;;16.54;100.00;101578.56;4152967;28;20026;-72
2023/08/22 02:07:34;;;;;;;4.55;2.80;;;17.00;99.90;;;16.55;100.00;101582.03;4153913;28;20026;-72
2023/08/22 02:09:35;;;;;;;3.88;2.45;;;17.00;99.90;;;16.50;100.00;101585.19;4154050;28;20050;-72
2023/08/22 02:11:36;;;;;;;8.32;2.45;;;17.00;99.90;;;16.49;100.00;101580.88;4154008;28;20034;-72
2023/08/22 02:13:37;;;;;;;4.82;2.10;;;17.00;99.90;;;16.48;100.00;101597.88;4152697;28;20030;-72
2023/08/22 02:15:37;;;;;;;3.67;2.17;;;17.00;99.90;;;16.44;100.00;101582.41;4153931;28;20030;-72
2023/08/22 02:17:39;;;;;;;4.63;2.30;;;17.00;99.90;;;16.44;100.00;101599.22;4153890;28;20026;-72
2023/08/22 02:19:39;;;;;;;8.00;2.75;;;16.90;99.90;;;16.42;100.00;101597.72;4152669;28;20030;-72
2023/08/22 02:21:40;;;;;;;8.82;2.60;;;16.90;99.90;;;16.36;100.00;101593.94;4154113;28;20036;-72
2023/08/22 02:23:41;;;;;;;7.63;2.47;;;16.90;99.90;;;16.44;100.00;101598.38;4145136;28;20434;-72
2023/08/22 02:25:42;;;;;;;7.75;2.45;;;16.90;99.90;;;16.46;100.00;101597.19;4153042;28;20053;-71
2023/08/22 02:27:43;;;;;;;6.50;2.72;;;17.00;99.90;;;16.43;100.00;101596.69;4153742;28;20114;-72
2023/08/22 02:29:43;;;;;;;4.45;2.40;;;17.00;99.90;;;16.43;100.00;101600.19;4152294;28;20105;-72
2023/08/22 02:31:44;;;;;;;7.22;2.40;;;17.00;99.90;;;16.45;100.00;101598.22;4153601;28;20045;-72
2023/08/22 02:33:45;;;;;;;8.32;2.83;;;16.90;99.90;;;16.41;100.00;101586.25;4153825;28;20024;-72
2023/08/22 02:35:46;;;;;;;4.63;2.28;;;17.00;99.90;;;16.44;100.00;101590.38;4150537;28;20064;-73
2023/08/22 02:37:47;;;;;;;7.40;2.72;;;17.00;99.90;;;16.44;100.00;101585.06;4153492;28;20041;-72
2023/08/22 02:39:48;;;;;;;10.25;3.28;;;17.00;99.90;;;16.47;100.00;101585.53;4151824;28;20117;-71
2023/08/22 02:41:49;;;;;;;7.93;3.10;;;17.00;99.90;;;16.45;100.00;101578.75;4145217;28;20029;-72
2023/08/22 02:43:50;;;;;;;9.32;2.85;;;17.00;99.90;;;16.47;100.00;101588.22;4142415;28;20040;-72
2023/08/22 02:45:51;;;;;;;6.70;2.63;;;17.00;99.90;;;16.41;100.00;101580.91;4152222;28;20042;-72
2023/08/22 02:47:53;;;;;;;7.35;3.10;;;17.00;99.90;;;16.35;100.00;101581.59;4148762;28;20076;-72
2023/08/22 02:49:54;;;;;;;9.98;3.05;;;17.00;99.90;;;16.42;100.00;101593.22;4168480;28;20112;-72
2023/08/22 02:51:54;;;;;;;6.70;2.53;;;17.00;99.90;;;16.38;100.00;101589.25;4152205;28;20402;-72
2023/08/22 02:53:55;;;;;;;7.35;2.65;;;16.90;99.90;;;16.43;100.00;101597.53;4153306;28;20021;-72
2023/08/22 02:55:59;;;;;;;7.10;2.90;;;16.90;99.90;;;16.42;100.00;101593.22;4153151;28;20033;-72
2023/08/22 02:57:59;;;;;;;7.72;3.40;;;16.90;99.90;;;16.33;100.00;101572.13;4153199;28;20029;-72
2023/08/22 03:00:00;;;;;;;7.80;3.80;;;16.90;99.90;;;16.42;100.00;101593.22;4150114;28;20462;-72
2023/08/22 03:02:01;;;;;;;5.72;2.83;;;16.90;99.90;;;16.40;100.00;101584.56;4145278;28;20030;-72
2023/08/22 03:04:02;;;;;;;7.65;3.47;;;16.90;99.90;;;16.42;100.00;101587.91;4151943;28;20125;-72
2023/08/22 03:06:03;;;;;;;8.77;3.10;;;16.90;99.90;;;16.41;100.00;101583.56;4153300;28;20174;-72
2023/08/22 03:08:04;;;;;;;6.93;2.92;;;17.00;99.90;;;16.43;100.00;101583.38;4151793;28;20030;-72
2023/08/22 03:10:08;;;;;;;7.85;2.90;;;16.90;99.90;;;16.41;100.00;101580.06;4152010;28;20037;-72
2023/08/22 03:12:08;;;;;;;5.60;3.13;;;16.90;99.90;;;16.41;100.00;101586.25;4152967;28;20072;-72
2023/08/22 03:14:09;;;;;;;3.72;2.50;;;16.90;99.90;;;16.42;100.00;101584.41;4151866;28;20022;-72
2023/08/22 03:16:10;;;;;;;9.75;3.35;;;16.90;99.90;;;16.31;100.00;101566.13;4153076;28;20033;-72
2023/08/22 03:18:11;;;;;;;7.45;2.75;;;16.90;99.90;;;16.40;100.00;101570.41;4151809;28;20030;-72
2023/08/22 03:20:12;;;;;;;9.27;3.15;;;16.90;99.90;;;16.42;100.00;101582.59;4167986;28;20088;-72
2023/08/22 03:22:13;;;;;;;4.25;2.58;;;16.90;99.90;;;16.42;100.00;101589.72;4151057;28;20399;-73
2023/08/22 03:24:14;;;;;;;6.22;2.42;;;16.90;99.90;;;16.35;100.00;101584.25;4152922;28;20036;-72
2023/08/22 03:26:15;;;;;;;4.95;2.33;;;16.90;99.90;;;16.37;100.00;101595.56;4151539;28;20090;-72
2023/08/22 03:28:16;;;;;;;6.43;3.03;;;16.90;99.90;;;16.35;100.00;101597.59;4152564;28;20030;-72
2023/08/22 03:30:16;;;;;;;4.80;2.63;;;16.90;99.90;;;16.35;100.00;101604.72;4151348;28;20110;-72
2023/08/22 03:32:17;;;;;;;8.20;3.17;;;16.90;99.90;;;16.33;100.00;101604.91;4151763;28;20025;-72
2023/08/22 03:34:18;;;;;;;8.80;3.20;;;16.80;99.90;;;16.34;100.00;101606.56;4152873;28;20048;-72
2023/08/22 03:36:20;;;;;;;4.93;2.70;;;16.90;99.90;;;16.29;100.00;101598.28;4151967;28;20037;-72
2023/08/22 03:38:22;;;;;;;6.97;2.70;;;16.80;99.90;;;16.32;100.00;101605.91;4151566;28;20520;-72
2023/08/22 03:40:22;;;;;;;9.55;3.35;;;16.80;99.90;;;16.30;100.00;101607.94;4152709;28;20029;-72
2023/08/22 03:42:23;;;;;;;5.65;2.92;;;16.80;99.90;;;16.29;100.00;101600.94;4152660;28;20494;-72
2023/08/22 03:44:24;;;;;;;8.57;3.47;;;16.80;99.90;;;16.34;100.00;101613.72;4151224;28;20022;-72
2023/08/22 03:46:25;;;;;;;6.90;3.13;;;16.80;99.90;;;16.37;100.00;101616.88;4138611;28;20030;-72
2023/08/22 03:48:26;;;;;;;6.72;3.10;;;16.90;99.90;;;16.29;100.00;101605.41;4140977;28;20026;-72
2023/08/22 03:50:27;;;;;;;11.25;3.88;;;16.90;99.90;;;16.33;100.00;101623.56;4152583;28;20030;-72
2023/08/22 03:52:27;;;;;;;6.25;2.97;;;16.90;99.90;;;16.32;100.00;101621.06;4152582;28;20025;-72
2023/08/22 03:54:28;;;;;;;8.18;3.40;;;16.90;99.90;;;16.29;100.00;101621.41;4152461;28;20037;-72
2023/08/22 03:56:29;;;;;;;9.93;3.95;;;16.80;99.90;;;16.25;100.00;101610.25;4152474;28;20112;-72
2023/08/22 03:58:30;;;;;;;9.55;4.05;;;16.80;99.90;;;16.30;100.00;101617.75;4152336;28;20037;-72
2023/08/22 04:00:31;;;;;;;6.85;3.80;;;16.80;99.90;;;16.27;100.00;101618.09;4152434;28;20034;-72
2023/08/22 04:02:32;;;;;;;5.78;3.20;;;16.80;99.90;;;16.26;100.00;101619.06;4152351;28;20033;-72
2023/08/22 04:04:33;;;;;;;6.43;3.20;;;16.80;99.90;;;16.21;100.00;101614.28;4152486;28;20492;-72
2023/08/22 04:06:33;;;;;;;10.15;4.30;;;16.80;99.90;;;16.18;100.00;101611.13;4152394;28;20044;-72
2023/08/22 04:08:35;;;;;;;9.63;3.75;;;16.80;99.90;;;16.14;100.00;101602.66;4151169;28;20037;-72
2023/08/22 04:10:36;;;;;;;6.78;3.50;;;16.70;99.90;;;16.14;100.00;101599.97;4151196;28;20101;-72
2023/08/22 04:12:37;;;;;;;6.72;3.25;;;16.70;99.90;;;16.09;100.00;101589.03;4152407;28;20030;-72
2023/08/22 04:14:37;;;;;;;7.50;3.88;;;16.70;99.90;;;16.09;100.00;101594.34;4150975;28;20052;-72
2023/08/22 04:16:38;;;;;;;7.25;3.40;;;16.60;99.90;;;16.10;100.00;101601.31;4167316;28;20028;-72
2023/08/22 04:18:39;;;;;;;7.10;3.17;;;16.60;99.90;;;15.96;100.00;101581.56;4152244;28;20030;-72
2023/08/22 04:20:42;;;;;;;6.70;4.00;;;16.60;99.90;;;16.03;100.00;101595.88;4152404;28;20053;-72
2023/08/22 04:22:43;;;;;;;10.25;4.18;;;16.50;99.90;;;16.01;100.00;101591.69;4149052;28;20033;-72
2023/08/22 04:24:44;;;;;;;7.82;3.40;;;16.50;99.90;;;15.97;100.00;101595.72;4146221;28;20057;-72
2023/08/22 04:26:45;;;;;;;8.75;3.08;;;16.50;99.90;;;15.98;100.00;101600.84;4150411;28;20037;-72
2023/08/22 04:28:46;;;;;;;9.10;3.63;;;16.50;99.90;;;15.95;100.00;101603.84;4145846;28;20033;-72
2023/08/22 04:30:47;;;;;;;9.43;4.50;;;16.50;99.90;;;15.94;100.00;101598.72;4147911;28;20073;-72
2023/08/22 04:32:47;;;;;;;7.72;3.38;;;16.40;99.90;;;15.89;100.00;101595.72;4141204;28;20022;-72
2023/08/22 04:34:48;;;;;;;7.05;4.18;;;16.50;99.90;;;15.90;100.00;101595.56;4143850;28;20409;-72
2023/08/22 04:36:49;;;;;;;7.50;3.92;;;16.40;99.90;;;15.86;100.00;101602.22;4146856;28;20051;-72
2023/08/22 04:38:50;;;;;;;7.20;3.75;;;16.40;99.90;;;15.90;100.00;101611.53;4132543;28;20030;-72
2023/08/22 04:40:51;;;;;;;9.82;3.60;;;16.40;99.90;;;15.81;100.00;101595.75;4145955;28;20072;-72
2023/08/22 04:42:52;;;;;;;7.13;3.67;;;16.40;99.90;;;15.84;100.00;101598.06;4147555;28;20030;-72
2023/08/22 04:44:53;;;;;;;4.93;2.60;;;16.40;99.90;;;15.86;100.00;101604.06;4149477;28;20033;-72
2023/08/22 04:46:53;;;;;;;9.32;3.63;;;16.40;99.90;;;15.85;100.00;101607.72;4149630;28;20032;-72
2023/08/22 04:48:54;;;;;;;9.63;3.75;;;16.40;99.90;;;15.85;100.00;101608.56;4154240;28;20030;-72
2023/08/22 04:50:55;;;;;;;14.40;3.60;;;16.40;99.90;;;15.79;100.00;101609.22;4155294;28;20025;-72
2023/08/22 04:52:56;;;;;;;11.35;3.92;;;16.30;99.90;;;15.82;100.00;101618.69;4144214;28;20023;-72
2023/08/22 04:54:57;;;;;;;9.73;4.05;;;16.30;99.90;;;15.85;100.00;101618.34;4146269;28;20040;-72
2023/08/22 04:56:58;;;;;;;10.88;4.10;;;16.30;99.90;;;15.84;100.00;101622.00;4153126;28;20394;-72
2023/08/22 04:58:59;;;;;;;8.57;3.90;;;16.40;99.90;;;15.78;100.00;101617.34;4149731;28;20026;-72
2023/08/22 05:01:00;;;;;;;8.23;3.95;;;16.30;99.90;;;15.79;100.00;101617.22;4135667;28;20030;-72
2023/08/22 05:03:01;;;;;;;6.65;3.72;;;16.40;99.90;;;15.79;100.00;101619.03;4137199;28;20034;-72
2023/08/22 05:05:03;;;;;;;8.25;3.75;;;16.30;99.90;;;15.79;100.00;101616.38;4159967;28;20525;-72
2023/08/22 05:07:04;;;;;;;5.22;3.38;;;16.30;99.90;;;15.74;100.00;101611.53;4154919;28;20033;-72
2023/08/22 05:09:05;;;;;;;7.00;3.60;;;16.30;99.90;;;15.76;100.00;101617.53;4153779;28;20018;-72
2023/08/22 05:11:06;;;;;;;8.30;3.45;;;16.30;99.90;;;15.74;100.00;101621.38;4170107;28;20029;-72
2023/08/22 05:13:07;;;;;;;6.35;3.35;;;16.30;99.90;;;15.76;100.00;101627.34;4153558;28;20425;-72
2023/08/22 05:15:08;;;;;;;5.95;3.13;;;16.30;99.90;;;15.75;100.00;101629.16;4154907;28;20033;-72
2023/08/22 05:17:09;;;;;;;9.23;3.58;;;16.30;99.90;;;15.74;100.00;101616.06;4137197;28;20030;-72
2023/08/22 05:19:10;;;;;;;7.05;2.83;;;16.30;99.90;;;15.74;100.00;101624.03;4155103;28;20056;-72
2023/08/22 05:21:11;;;;;;;8.48;3.35;;;16.20;99.90;;;15.74;100.00;101622.19;4154822;28;20026;-72
2023/08/22 05:23:12;;;;;;;5.72;3.42;;;16.30;99.90;;;15.74;100.00;101622.19;4154159;28;20034;-72
2023/08/22 05:25:13;;;;;;;4.70;2.70;;;16.30;99.90;;;15.73;100.00;101630.34;4154603;28;20018;-72
2023/08/22 05:27:14;;;;;;;6.07;3.05;;;16.30;99.90;;;15.74;100.00;101621.38;4153558;28;20034;-72
2023/08/22 05:29:19;;;;;;;7.93;3.35;;;16.20;99.90;;;15.74;100.00;101624.03;4154391;28;20029;-72
2023/08/22 05:31:24;;;;;;;4.97;2.92;;;16.30;99.90;;;15.76;100.00;101630.00;4153441;28;20030;-72
2023/08/22 05:33:24;;;;;;;4.93;3.00;;;16.30;99.90;;;15.76;100.00;101630.00;4154565;28;20026;-72
2023/08/22 05:35:25;;;;;;;8.95;3.60;;;16.30;99.90;;;15.74;100.00;101621.38;4153891;28;20057;-72
2023/08/22 05:37:26;;;;;;;8.63;3.17;;;16.30;99.90;;;15.74;100.00;101624.03;4136060;28;20560;-72
2023/08/22 05:39:27;;;;;;;6.13;2.60;;;16.30;99.90;;;15.77;100.00;101631.69;4146522;28;20052;-72
2023/08/22 05:41:28;;;;;;;6.40;3.30;;;16.30;99.90;;;15.73;100.00;101619.69;4165672;28;20052;-72
2023/08/22 05:43:29;;;;;;;5.95;2.80;;;16.30;99.90;;;15.77;100.00;101615.72;4153359;28;20410;-72
2023/08/22 05:45:29;;;;;;;10.30;3.65;;;16.30;99.90;;;15.84;100.00;101627.31;4153465;28;20030;-72
2023/08/22 05:47:30;;;;;;;7.05;3.85;;;16.30;99.90;;;15.83;100.00;101628.34;4153373;28;20060;-72
2023/08/22 05:49:31;;;;;;;5.70;2.70;;;16.40;99.90;;;15.87;100.00;101629.66;4145986;28;20026;-72
2023/08/22 05:51:32;;;;;;;7.38;3.22;;;16.30;99.90;;;15.89;100.00;101631.13;4152129;28;20026;-72
2023/08/22 05:53:33;;;;;;;5.00;2.47;;;16.40;99.90;;;15.91;100.00;101637.13;4153376;28;20101;-72
2023/08/22 05:55:34;;;;;;;4.32;2.28;;;16.40;99.90;;;15.94;100.00;101641.28;4152112;28;20481;-72
2023/08/22 05:57:35;;;;;;;7.85;3.13;;;16.40;99.90;;;15.96;100.00;101639.28;4152244;28;20022;-72
2023/08/22 05:59:37;;;;;;;5.45;2.50;;;16.40;99.90;;;15.99;100.00;101639.78;4147714;28;20033;-72
2023/08/22 06:01:37;;;;;;;3.28;2.40;;;16.50;99.90;;;16.01;100.00;101639.59;4153374;28;20034;-72
2023/08/22 06:03:38;;;;;;;7.40;2.70;;;16.50;99.90;;;16.03;100.00;101637.63;4152161;28;20033;-72
2023/08/22 06:05:40;;;;;;;7.13;2.58;;;16.50;99.90;;;16.08;100.00;101645.06;4152041;28;20077;-72
2023/08/22 06:07:41;;;;;;;5.38;2.33;;;16.60;99.90;;;16.06;100.00;101631.97;4153017;28;20080;-72
2023/08/22 06:09:42;;;;;;;5.55;2.33;;;16.60;99.90;;;16.14;100.00;101639.06;4153167;28;20501;-72
2023/08/22 06:11:43;;;;;;;3.70;2.33;;;16.60;99.90;;;16.17;100.00;101644.06;4153388;28;20034;-72
2023/08/22 06:13:44;;;;;;;5.35;2.58;;;16.70;99.90;;;16.20;100.00;101643.72;4150637;28;20026;-72
2023/08/22 06:15:45;;;;;;;7.85;3.13;;;16.70;99.90;;;16.20;100.00;101643.72;4146501;28;20034;-72
2023/08/22 06:17:46;;;;;;;8.70;2.78;;;16.70;99.90;;;16.24;100.00;101645.06;4152754;28;20037;-72
2023/08/22 06:19:48;;;;;;;10.40;3.33;;;16.80;99.90;;;16.24;100.00;101637.06;4143817;28;20034;-72
2023/08/22 06:21:49;;;;;;;6.90;2.75;;;16.80;99.90;;;16.37;100.00;101656.81;4139626;28;20505;-72
2023/08/22 06:23:50;;;;;;;6.63;2.75;;;16.90;99.90;;;16.43;100.00;101656.13;4148351;28;20068;-72
2023/08/22 06:25:51;;;;;;;6.80;2.33;;;16.90;99.90;;;16.49;100.00;101660.75;4153029;28;20030;-72
2023/08/22 06:27:52;;;;;;;6.18;2.10;;;17.00;99.90;;;16.50;100.00;101662.44;4152727;28;20034;-72
2023/08/22 06:29:53;;;;;;;4.03;2.33;;;17.00;99.90;;;16.57;100.00;101668.78;4151781;28;20018;-72
2023/08/22 06:31:54;;;;;;;6.68;2.65;;;17.00;99.90;;;16.56;100.00;101661.78;4151216;28;20034;-72
2023/08/22 06:33:55;;;;;;;3.10;1.80;;;17.10;99.90;;;16.65;100.00;101670.56;4152937;28;20018;-72
2023/08/22 06:35:55;;;;;;;8.63;2.60;;;17.10;99.90;;;16.71;100.00;101674.38;4105661;28;1315027;-72
2023/08/22 06:37:56;;;;;;;5.18;1.90;;;17.20;99.90;;;16.75;100.00;101673.03;4153659;28;20164;-72
2023/08/22 06:39:57;;;;;;;5.88;2.50;;;17.20;99.90;;;16.82;100.00;101671.31;4144124;28;20022;-72
2023/08/22 06:41:58;;;;;;;4.93;1.90;;;17.30;99.90;;;16.82;100.00;101669.47;4152504;28;20528;-72
2023/08/22 06:44:00;;;;;;;6.15;2.53;;;17.30;99.90;;;16.87;100.00;101675.16;4152345;28;20026;-72
2023/08/22 06:46:01;;;;;;;5.65;2.25;;;17.40;99.90;;;16.90;100.00;101672.13;4152442;28;20033;-72
2023/08/22 06:48:03;;;;;;;6.10;2.42;;;17.40;99.90;;;16.87;100.00;101667.16;4151991;28;20034;-72
2023/08/22 06:50:05;;;;;;;7.80;2.58;;;17.50;99.90;;;16.94;100.00;101676.09;4147721;28;20083;-72
2023/08/22 06:52:05;;;;;;;6.57;2.25;;;17.50;99.90;;;17.02;100.00;101677.91;4152150;28;20102;-72
2023/08/22 06:54:06;;;;;;;6.72;2.00;;;17.50;99.90;;;17.02;100.00;101677.91;4152277;28;20052;-72
2023/08/22 06:56:08;;;;;;;5.53;2.38;;;17.60;99.90;;;17.10;100.00;101685.84;4137699;28;20058;-72
2023/08/22 06:58:09;;;;;;;7.38;2.40;;;17.60;99.90;;;17.11;100.00;101690.97;4140637;28;20030;-72
2023/08/22 07:00:14;;;;;;;5.07;1.85;;;17.60;99.90;;;17.16;100.00;101690.47;4148523;28;20026;-72
2023/08/22 07:02:15;;;;;;;5.80;2.00;;;17.70;99.90;;;17.22;100.00;101689.75;4153414;28;20477;-72
2023/08/22 07:04:16;;;;;;;6.18;2.95;;;17.70;99.90;;;17.24;100.00;101695.75;4153202;28;20044;-72
2023/08/22 07:06:17;;;;;;;8.65;2.65;;;17.80;99.90;;;17.27;100.00;101691.88;4153300;28;20367;-72
2023/08/22 07:08:19;;;;;;;5.50;2.53;;;17.80;99.90;;;17.34;100.00;101693.69;4153258;28;20033;-72
2023/08/22 07:10:20;;;;;;;6.55;2.17;;;17.80;99.90;;;17.35;100.00;101695.31;4150531;28;20026;-72
2023/08/22 07:12:21;;;;;;;6.75;1.98;;;17.90;99.90;;;17.39;100.00;101682.47;4150190;28;20392;-72
2023/08/22 07:14:21;;;;;;;6.95;2.67;;;17.90;99.90;;;17.42;100.00;101690.97;4150839;28;20041;-72
2023/08/22 07:16:22;;;;;;;4.47;2.53;;;18.00;99.90;;;17.48;100.00;101690.25;4149383;28;20026;-72
2023/08/22 07:18:23;;;;;;;8.57;2.50;;;18.00;99.90;;;17.54;100.00;101688.69;4150450;28;20040;-72
2023/08/22 07:20:24;;;;;;;5.07;1.83;;;18.10;99.90;;;17.54;100.00;101688.69;4139225;28;20097;-72
2023/08/22 07:22:25;;;;;;;2.65;1.25;;;18.10;99.90;;;17.71;100.00;101698.28;4134995;28;20421;-72
2023/08/22 07:24:26;;;;;;;6.03;2.28;;;18.10;99.90;;;17.76;100.00;101703.09;4152183;28;20026;-72
2023/08/22 07:26:27;;;;;;;4.18;1.73;;;18.20;99.90;;;17.80;100.00;101709.72;4152902;28;20393;-72
2023/08/22 07:28:28;;;;;;;3.00;1.65;;;18.30;99.90;;;17.86;100.00;101701.00;4152752;28;20026;-72
2023/08/22 07:30:29;;;;;;;7.35;1.70;;;18.40;99.90;;;17.89;100.00;101706.78;4152745;28;20022;-72
2023/08/22 07:32:30;;;;;;;9.98;2.15;;;18.40;99.90;;;17.97;100.00;101703.22;4151690;28;20021;-72
2023/08/22 07:34:32;;;;;;;6.07;1.80;;;18.50;99.90;;;18.03;100.00;101702.50;4152975;28;20022;-72
2023/08/22 07:36:33;;;;;;;4.18;1.80;;;18.50;99.90;;;18.13;100.00;101713.75;4150312;28;20066;-72
2023/08/22 07:38:33;;;;;;;5.10;1.42;;;18.60;99.90;;;18.14;100.00;101702.06;4152746;28;20041;-72
2023/08/22 07:40:39;;;;;;;5.85;1.55;;;18.70;99.90;;;18.25;100.00;101710.44;4148586;28;20040;-72
2023/08/22 07:42:40;;;;;;;6.13;1.73;;;18.70;99.90;;;18.32;100.00;101709.72;4167347;28;20040;-72
2023/08/22 07:44:41;;;;;;;4.97;1.38;;;18.80;99.90;;;18.38;100.00;101709.00;4139990;28;20398;-73
2023/08/22 07:46:42;;;;;;;5.43;1.75;;;18.90;99.90;;;18.45;100.00;101705.41;4149649;28;20034;-72
2023/08/22 07:48:43;;;;;;;4.40;1.88;;;18.90;99.90;;;18.54;100.00;101720.38;4145006;28;20363;-72
2023/08/22 07:50:43;;;;;;;3.42;1.75;;;19.00;99.90;;;18.62;100.00;101728.28;4147625;28;20030;-73
2023/08/22 07:52:44;;;;;;;4.05;1.35;;;19.10;99.90;;;18.63;100.00;101727.28;4144209;28;20026;-72
2023/08/22 07:54:45;;;;;;;4.53;1.50;;;19.10;99.90;;;18.67;100.00;101730.41;4150615;28;20504;-72
2023/08/22 07:56:46;;;;;;;3.17;1.00;;;19.20;99.90;;;18.77;100.00;101726.44;4141130;28;20025;-72
2023/08/22 07:58:48;;;;;;;5.07;1.63;;;19.30;99.90;;;18.76;100.00;101722.09;4150622;28;20030;-72
2023/08/22 08:00:48;;;;;;;6.65;1.35;;;19.30;99.90;;;18.87;100.00;101717.31;4150945;28;20054;-72
2023/08/22 08:02:49;;;;;;;4.53;1.38;;;19.40;99.90;;;18.94;100.00;101715.53;4147736;28;20405;-72
2023/08/22 08:04:50;;;;;;;8.05;1.83;;;19.40;99.90;;;19.03;100.00;101719.75;4152443;28;20022;-72
2023/08/22 08:06:51;;;;;;;3.60;1.40;;;19.50;99.90;;;19.12;100.00;101719.47;4152348;28;20037;-72
2023/08/22 08:08:52;;;;;;;4.47;1.42;;;19.60;99.90;;;19.19;100.00;101712.38;4152143;28;20048;-72
2023/08/22 08:10:53;;;;;;;5.38;1.20;;;19.70;99.90;;;19.26;100.00;101720.47;4151848;28;20022;-72
2023/08/22 08:12:54;;;;;;;4.70;1.27;;;19.70;99.90;;;19.31;100.00;101712.69;4151982;28;20025;-72
2023/08/22 08:14:55;;;;;;;2.42;1.10;;;19.80;99.90;;;19.42;100.00;101706.03;4142049;28;20037;-72
2023/08/22 08:16:55;;;;;;;2.92;1.17;;;19.90;99.90;;;19.47;100.00;101707.16;4145616;28;20418;-72
2023/08/22 08:18:56;;;;;;;4.53;1.27;;;20.00;99.90;;;19.56;100.00;101707.84;4141236;28;20038;-72